createdAt,value
2017-09-16T00:00:19.006Z,65.00
2017-09-16T00:02:46.543Z,64.90
2017-09-16T00:05:14.036Z,65.00
2017-09-16T00:07:42.311Z,64.90
2017-09-16T00:10:10.583Z,64.90
2017-09-16T00:12:38.887Z,64.90
2017-09-16T00:15:06.385Z,64.80
2017-09-16T00:17:33.875Z,64.80
2017-09-16T00:20:02.147Z,64.90
2017-09-16T00:22:30.408Z,64.90
2017-09-16T00:24:57.944Z,64.90
2017-09-16T00:27:25.435Z,64.80
2017-09-16T00:29:53.709Z,64.60
2017-09-16T00:32:21.991Z,64.70
2017-09-16T00:34:50.267Z,64.70
2017-09-16T00:37:18.527Z,64.80
2017-09-16T00:39:46.039Z,64.70
2017-09-16T00:42:13.523Z,64.80
2017-09-16T00:44:41.041Z,65.00
2017-09-16T00:47:08.552Z,64.90
2017-09-16T00:49:36.083Z,64.80
2017-09-16T00:52:03.579Z,65.40
2017-09-16T00:54:31.889Z,64.80
2017-09-16T00:56:59.417Z,64.90
2017-09-16T00:59:27.671Z,64.90
2017-09-16T01:01:55.194Z,64.90
2017-09-16T01:04:22.679Z,64.90
2017-09-16T01:06:50.173Z,64.90
2017-09-16T01:09:17.682Z,64.80
2017-09-16T01:11:45.163Z,64.80
2017-09-16T01:14:13.472Z,64.70
2017-09-16T01:16:40.955Z,64.70
2017-09-16T01:19:08.464Z,64.70
2017-09-16T01:21:35.975Z,64.80
2017-09-16T01:24:03.508Z,64.70
2017-09-16T01:26:31.041Z,64.80
2017-09-16T01:28:58.527Z,64.80
2017-09-16T01:31:26.048Z,64.90
2017-09-16T01:33:54.313Z,64.90
2017-09-16T01:36:22.597Z,65.20
2017-09-16T01:38:50.851Z,65.00
2017-09-16T01:41:18.388Z,65.00
2017-09-16T01:43:45.881Z,65.00
2017-09-16T01:46:14.150Z,65.00
2017-09-16T01:48:42.444Z,64.90
2017-09-16T01:51:10.688Z,65.00
2017-09-16T01:53:38.215Z,65.00
2017-09-16T01:56:05.756Z,64.90
2017-09-16T01:58:33.254Z,65.00
2017-09-16T02:01:00.750Z,64.80
2017-09-16T02:03:28.283Z,65.40
2017-09-16T02:05:56.545Z,64.90
2017-09-16T02:08:24.038Z,64.90
2017-09-16T02:10:51.566Z,64.90
2017-09-16T02:13:19.060Z,64.70
2017-09-16T02:15:46.556Z,65.40
2017-09-16T02:18:14.076Z,64.70
2017-09-16T02:20:41.577Z,64.80
2017-09-16T02:23:09.112Z,64.80
2017-09-16T02:25:36.600Z,64.70
2017-09-16T02:28:04.105Z,64.80
2017-09-16T02:30:31.631Z,64.90
2017-09-16T02:32:59.888Z,65.10
2017-09-16T02:35:27.418Z,65.10
2017-09-16T02:37:54.903Z,64.90
2017-09-16T02:40:22.397Z,65.00
2017-09-16T02:42:49.920Z,65.00
2017-09-16T02:45:17.409Z,65.10
2017-09-16T02:47:44.902Z,65.10
2017-09-16T02:50:12.425Z,65.10
2017-09-16T02:52:39.945Z,65.00
2017-09-16T02:55:07.468Z,65.00
2017-09-16T02:57:34.982Z,65.00
2017-09-16T03:00:03.274Z,64.90
2017-09-16T03:02:30.800Z,64.90
2017-09-16T03:04:58.319Z,64.90
2017-09-16T03:07:25.807Z,64.90
2017-09-16T03:09:54.074Z,65.10
2017-09-16T03:12:21.598Z,65.10
2017-09-16T03:14:49.101Z,65.30
2017-09-16T03:17:16.601Z,65.50
2017-09-16T03:19:44.120Z,65.60
2017-09-16T03:22:12.376Z,65.60
2017-09-16T03:24:39.910Z,65.70
2017-09-16T03:27:07.409Z,65.70
2017-09-16T03:29:35.669Z,65.90
2017-09-16T03:32:03.193Z,65.80
2017-09-16T03:34:30.690Z,65.80
2017-09-16T03:36:58.211Z,65.90
2017-09-16T03:39:25.713Z,66.10
2017-09-16T03:41:54.013Z,66.20
2017-09-16T03:44:21.514Z,66.10
2017-09-16T03:46:49.012Z,66.20
2017-09-16T03:49:17.633Z,66.20
2017-09-16T03:51:45.128Z,66.20
2017-09-16T03:54:12.627Z,66.30
2017-09-16T03:56:40.157Z,66.40
2017-09-16T03:59:08.453Z,66.30
2017-09-16T04:01:47.840Z,66.40
2017-09-16T04:04:15.435Z,66.30
2017-09-16T04:06:43.692Z,66.30
2017-09-16T04:09:11.953Z,66.80
2017-09-16T04:11:39.480Z,66.30
2017-09-16T04:14:07.004Z,66.30
2017-09-16T04:16:34.544Z,66.20
2017-09-16T04:19:02.810Z,66.10
2017-09-16T04:21:31.081Z,65.90
2017-09-16T04:23:58.614Z,65.90
2017-09-16T04:26:26.107Z,65.90
2017-09-16T04:28:54.392Z,65.80
2017-09-16T04:31:22.680Z,65.70
2017-09-16T04:33:50.207Z,65.70
2017-09-16T04:36:17.735Z,65.80
2017-09-16T04:38:45.229Z,65.80
2017-09-16T04:41:13.529Z,65.80
2017-09-16T04:43:41.037Z,65.70
2017-09-16T04:46:08.537Z,65.70
2017-09-16T04:48:36.056Z,65.60
2017-09-16T04:51:03.554Z,65.60
2017-09-16T04:53:31.089Z,65.60
2017-09-16T04:55:59.369Z,65.70
2017-09-16T04:58:27.659Z,65.70
2017-09-16T05:00:55.181Z,65.70
2017-09-16T05:03:22.671Z,65.80
2017-09-16T05:05:50.197Z,66.00
2017-09-16T05:08:17.685Z,66.10
2017-09-16T05:10:45.216Z,66.10
2017-09-16T05:13:12.717Z,66.00
2017-09-16T05:15:40.219Z,66.10
2017-09-16T05:18:07.741Z,66.10
2017-09-16T05:20:35.264Z,66.10
2017-09-16T05:23:02.761Z,66.10
2017-09-16T05:25:30.254Z,66.00
2017-09-16T05:27:57.789Z,65.90
2017-09-16T05:30:25.291Z,65.90
2017-09-16T05:32:52.790Z,66.50
2017-09-16T05:35:20.313Z,65.90
2017-09-16T05:37:47.845Z,65.90
2017-09-16T05:40:16.500Z,65.90
2017-09-16T05:42:43.997Z,66.00
2017-09-16T05:45:12.280Z,66.80
2017-09-16T05:47:39.773Z,66.10
2017-09-16T05:50:07.313Z,66.30
2017-09-16T05:52:34.808Z,66.40
2017-09-16T05:55:02.308Z,66.40
2017-09-16T05:57:29.835Z,66.70
2017-09-16T05:59:57.324Z,66.80
2017-09-16T06:02:24.811Z,67.10
2017-09-16T06:04:52.354Z,67.10
2017-09-16T06:07:19.844Z,67.30
2017-09-16T06:09:47.376Z,67.40
2017-09-16T06:12:14.896Z,67.50
2017-09-16T06:14:42.425Z,67.70
2017-09-16T06:17:09.921Z,67.90
2017-09-16T06:19:37.465Z,68.10
2017-09-16T06:22:05.733Z,68.40
2017-09-16T06:24:33.996Z,68.60
2017-09-16T06:27:01.518Z,68.60
2017-09-16T06:29:29.023Z,68.70
2017-09-16T06:31:57.317Z,68.70
2017-09-16T06:34:24.815Z,68.80
2017-09-16T06:36:52.314Z,68.80
2017-09-16T06:39:20.604Z,68.80
2017-09-16T06:41:48.101Z,68.80
2017-09-16T06:44:15.640Z,68.70
2017-09-16T06:46:43.135Z,68.80
2017-09-16T06:49:10.631Z,68.70
2017-09-16T06:51:38.169Z,68.80
2017-09-16T06:54:06.433Z,68.90
2017-09-16T06:56:33.935Z,68.90
2017-09-16T06:59:01.456Z,69.00
2017-09-16T07:01:29.740Z,69.40
2017-09-16T07:03:58.054Z,69.30
2017-09-16T07:06:25.534Z,69.30
2017-09-16T07:08:53.832Z,69.30
2017-09-16T07:11:21.353Z,69.40
2017-09-16T07:13:48.878Z,69.40
2017-09-16T07:16:16.373Z,68.30
2017-09-16T07:18:44.672Z,68.10
2017-09-16T07:21:12.247Z,68.10
2017-09-16T07:23:40.550Z,67.60
2017-09-16T07:26:08.056Z,67.60
2017-09-16T07:28:35.584Z,67.30
2017-09-16T07:31:03.072Z,66.90
2017-09-16T07:33:30.606Z,66.80
2017-09-16T07:35:58.098Z,66.90
2017-09-16T07:38:25.621Z,66.80
2017-09-16T07:40:53.119Z,67.00
2017-09-16T07:43:20.644Z,66.50
2017-09-16T07:45:48.137Z,66.30
2017-09-16T07:48:16.414Z,65.90
2017-09-16T07:50:44.708Z,66.00
2017-09-16T07:53:12.204Z,66.00
2017-09-16T07:55:39.696Z,65.80
2017-09-16T07:58:08.028Z,64.90
2017-09-16T08:00:35.523Z,64.90
2017-09-16T08:03:03.008Z,64.80
2017-09-16T08:05:30.529Z,64.60
2017-09-16T08:07:58.052Z,64.50
2017-09-16T08:10:25.543Z,64.30
2017-09-16T08:12:53.069Z,64.20
2017-09-16T08:15:20.568Z,64.10
2017-09-16T08:17:48.859Z,64.20
2017-09-16T08:20:17.581Z,64.10
2017-09-16T08:22:45.081Z,64.10
2017-09-16T08:25:12.593Z,63.80
2017-09-16T08:27:40.090Z,63.70
2017-09-16T08:30:07.614Z,63.20
2017-09-16T08:32:35.115Z,63.50
2017-09-16T08:35:03.409Z,63.20
2017-09-16T08:37:30.914Z,63.20
2017-09-16T08:39:58.444Z,63.10
2017-09-16T08:42:25.937Z,63.10
2017-09-16T08:44:53.465Z,63.10
2017-09-16T08:47:20.979Z,63.20
2017-09-16T08:49:49.301Z,62.90
2017-09-16T08:52:16.805Z,62.90
2017-09-16T08:54:45.086Z,62.60
2017-09-16T08:57:13.417Z,62.60
2017-09-16T08:59:40.913Z,62.60
2017-09-16T09:02:08.399Z,62.40
2017-09-16T09:04:35.917Z,62.70
2017-09-16T09:07:04.181Z,63.00
2017-09-16T09:09:31.701Z,62.80
2017-09-16T09:11:59.243Z,63.00
2017-09-16T09:14:26.748Z,63.00
2017-09-16T09:16:54.249Z,62.90
2017-09-16T09:19:21.793Z,62.70
2017-09-16T09:21:50.065Z,63.10
2017-09-16T09:24:18.332Z,63.20
2017-09-16T09:26:45.856Z,63.20
2017-09-16T09:29:13.356Z,63.30
2017-09-16T09:31:41.647Z,63.90
2017-09-16T09:34:09.901Z,63.30
2017-09-16T09:36:38.161Z,63.20
2017-09-16T09:39:06.588Z,63.20
2017-09-16T09:41:34.183Z,63.80
2017-09-16T09:44:02.616Z,63.20
2017-09-16T09:46:30.109Z,63.20
2017-09-16T09:48:57.633Z,63.20
2017-09-16T09:51:25.126Z,63.20
2017-09-16T09:53:52.651Z,63.10
2017-09-16T09:56:20.147Z,62.90
2017-09-16T09:58:47.652Z,63.00
2017-09-16T10:01:15.190Z,62.50
2017-09-16T10:03:42.679Z,62.30
2017-09-16T10:06:10.173Z,62.20
2017-09-16T10:08:37.698Z,62.10
2017-09-16T10:11:05.209Z,61.60
2017-09-16T10:13:32.720Z,61.10
2017-09-16T10:16:00.238Z,61.10
2017-09-16T10:18:28.535Z,60.50
2017-09-16T10:20:56.065Z,60.40
2017-09-16T10:23:23.672Z,60.60
2017-09-16T10:25:51.949Z,60.70
2017-09-16T10:28:19.447Z,60.70
2017-09-16T10:30:46.977Z,60.80
2017-09-16T10:33:14.472Z,60.60
2017-09-16T10:35:42.747Z,60.60
2017-09-16T10:38:11.039Z,60.60
2017-09-16T10:40:38.553Z,60.70
2017-09-16T10:43:06.084Z,60.70
2017-09-16T10:45:34.346Z,60.70
2017-09-16T10:48:02.651Z,60.20
2017-09-16T10:50:30.156Z,60.20
2017-09-16T10:52:58.420Z,60.30
2017-09-16T10:55:26.739Z,60.40
2017-09-16T10:57:56.081Z,60.30
2017-09-16T11:00:23.630Z,60.30
2017-09-16T11:02:51.239Z,60.60
2017-09-16T11:05:18.780Z,60.40
2017-09-16T11:07:47.048Z,60.40
2017-09-16T11:10:15.336Z,60.20
2017-09-16T11:12:42.921Z,60.20
2017-09-16T11:15:10.422Z,60.20
2017-09-16T11:17:37.920Z,60.20
2017-09-16T11:20:05.445Z,60.10
2017-09-16T11:22:33.755Z,59.30
2017-09-16T11:25:01.280Z,59.20
2017-09-16T11:27:29.577Z,59.70
2017-09-16T11:29:57.081Z,59.60
2017-09-16T11:32:25.516Z,59.60
2017-09-16T11:34:53.047Z,59.60
2017-09-16T11:37:21.317Z,59.30
2017-09-16T11:39:48.856Z,59.30
2017-09-16T11:42:16.349Z,58.50
2017-09-16T11:44:44.609Z,58.60
2017-09-16T11:47:12.137Z,58.60
2017-09-16T11:49:39.658Z,58.60
2017-09-16T11:52:07.157Z,59.00
2017-09-16T11:54:34.685Z,59.20
2017-09-16T11:57:02.193Z,59.30
2017-09-16T11:59:30.469Z,60.00
2017-09-16T12:01:58.786Z,60.50
2017-09-16T12:04:26.347Z,60.50
2017-09-16T12:06:53.913Z,60.70
2017-09-16T12:09:21.471Z,60.90
2017-09-16T12:11:48.985Z,61.40
2017-09-16T12:14:17.257Z,62.10
2017-09-16T12:16:45.551Z,62.40
2017-09-16T12:19:13.115Z,62.30
2017-09-16T12:21:40.604Z,62.60
2017-09-16T12:24:08.197Z,62.60
2017-09-16T12:26:36.473Z,63.10
2017-09-16T12:29:04.754Z,63.30
2017-09-16T12:31:33.053Z,63.70
2017-09-16T12:34:00.573Z,63.70
2017-09-16T12:36:28.868Z,64.00
2017-09-16T12:38:57.156Z,63.90
2017-09-16T12:41:24.645Z,63.90
2017-09-16T12:43:52.183Z,64.00
2017-09-16T12:46:19.682Z,64.10
2017-09-16T12:48:47.695Z,64.30
2017-09-16T12:51:15.301Z,64.20
2017-09-16T12:53:42.790Z,64.30
2017-09-16T12:56:11.081Z,64.90
2017-09-16T12:58:38.573Z,64.80
2017-09-16T13:01:06.109Z,65.20
2017-09-16T13:03:33.605Z,65.90
2017-09-16T13:06:01.106Z,65.50
2017-09-16T13:08:29.395Z,66.00
2017-09-16T13:10:56.893Z,65.90
2017-09-16T13:13:24.432Z,65.90
2017-09-16T13:15:51.926Z,66.30
2017-09-16T13:18:19.430Z,66.40
2017-09-16T13:20:46.962Z,66.50
2017-09-16T13:23:15.256Z,66.80
2017-09-16T13:25:42.771Z,66.90
2017-09-16T13:28:11.088Z,67.00
2017-09-16T13:30:38.592Z,66.90
2017-09-16T13:33:06.094Z,67.30
2017-09-16T13:35:33.627Z,67.00
2017-09-16T13:38:01.898Z,67.30
2017-09-16T13:40:30.548Z,67.30
2017-09-16T13:42:58.044Z,67.20
2017-09-16T13:45:26.351Z,67.90
2017-09-16T13:47:53.843Z,67.30
2017-09-16T13:50:21.351Z,67.60
2017-09-16T13:52:48.900Z,66.90
2017-09-16T13:55:16.410Z,66.10
2017-09-16T13:57:43.901Z,65.60
2017-09-16T14:00:12.201Z,64.50
2017-09-16T14:02:40.287Z,64.50
2017-09-16T14:05:07.789Z,64.70
2017-09-16T14:07:35.321Z,64.20
2017-09-16T14:10:02.824Z,64.00
2017-09-16T14:12:31.091Z,64.10
2017-09-16T14:14:59.400Z,63.70
2017-09-16T14:17:26.935Z,63.70
2017-09-16T14:19:55.241Z,64.30
2017-09-16T14:22:22.738Z,64.30
2017-09-16T14:24:50.267Z,64.20
2017-09-16T14:27:17.768Z,64.10
2017-09-16T14:29:46.049Z,64.40
2017-09-16T14:32:14.344Z,64.50
2017-09-16T14:34:41.850Z,64.50
2017-09-16T14:37:09.396Z,63.30
2017-09-16T14:39:36.894Z,63.90
2017-09-16T14:42:05.161Z,63.40
2017-09-16T14:44:33.040Z,63.40
2017-09-16T14:47:01.301Z,62.90
2017-09-16T14:49:28.828Z,62.80
2017-09-16T14:51:56.324Z,63.00
2017-09-16T14:54:24.592Z,63.30
2017-09-16T14:56:52.122Z,63.30
2017-09-16T14:59:19.620Z,63.60
2017-09-16T15:01:47.898Z,64.20
2017-09-16T15:04:15.614Z,64.20
2017-09-16T15:06:43.104Z,64.90
2017-09-16T15:09:11.398Z,65.70
2017-09-16T15:11:39.204Z,65.70
2017-09-16T15:14:07.019Z,65.80
2017-09-16T15:16:35.280Z,66.30
2017-09-16T15:19:03.590Z,66.70
2017-09-16T15:21:31.126Z,66.70
2017-09-16T15:23:59.518Z,67.30
2017-09-16T15:26:27.142Z,67.30
2017-09-16T15:28:55.503Z,67.70
2017-09-16T15:31:23.028Z,67.60
2017-09-16T15:33:50.853Z,67.90
2017-09-16T15:36:19.321Z,68.10
2017-09-16T15:38:46.840Z,68.10
2017-09-16T15:41:14.364Z,68.40
2017-09-16T15:43:42.619Z,68.80
2017-09-16T15:46:11.071Z,68.90
2017-09-16T15:48:38.585Z,68.80
2017-09-16T15:51:06.837Z,68.90
2017-09-16T15:53:35.309Z,69.00
2017-09-16T15:56:03.576Z,69.30
2017-09-16T15:58:31.323Z,69.30
2017-09-16T16:00:59.650Z,69.40
2017-09-16T16:03:27.188Z,69.40
2017-09-16T16:05:55.451Z,69.40
2017-09-16T16:08:22.947Z,69.30
2017-09-16T16:10:50.469Z,69.30
2017-09-16T16:13:18.788Z,69.30
2017-09-16T16:15:46.285Z,69.30
2017-09-16T16:18:13.784Z,69.30
2017-09-16T16:20:41.321Z,69.10
2017-09-16T16:23:09.586Z,68.80
2017-09-16T16:25:37.136Z,68.80
2017-09-16T16:28:04.625Z,68.80
2017-09-16T16:30:32.898Z,68.70
2017-09-16T16:33:00.429Z,68.70
2017-09-16T16:35:27.960Z,68.60
2017-09-16T16:37:56.680Z,68.60
2017-09-16T16:40:24.200Z,68.40
2017-09-16T16:42:51.696Z,68.50
2017-09-16T16:45:19.987Z,68.30
2017-09-16T16:47:47.484Z,68.30
2017-09-16T16:50:15.008Z,68.50
2017-09-16T16:52:42.580Z,68.50
2017-09-16T16:55:10.109Z,68.30
2017-09-16T16:57:38.360Z,68.20
2017-09-16T17:00:05.852Z,68.20
2017-09-16T17:02:33.376Z,68.10
2017-09-16T17:05:00.874Z,68.00
2017-09-16T17:07:28.398Z,68.50
2017-09-16T17:09:56.689Z,68.10
2017-09-16T17:12:24.949Z,68.10
2017-09-16T17:14:53.239Z,68.20
2017-09-16T17:17:21.503Z,68.10
2017-09-16T17:19:49.798Z,68.10
2017-09-16T17:22:17.296Z,68.10
2017-09-16T17:24:44.820Z,68.10
2017-09-16T17:27:12.340Z,68.20
2017-09-16T17:29:39.876Z,68.20
2017-09-16T17:32:07.373Z,68.20
2017-09-16T17:34:35.629Z,68.10
2017-09-16T17:37:03.935Z,68.00
2017-09-16T17:39:31.444Z,67.90
2017-09-16T17:41:58.956Z,68.00
2017-09-16T17:44:26.491Z,68.00
2017-09-16T17:46:54.788Z,67.90
2017-09-16T17:49:22.276Z,67.90
2017-09-16T17:51:49.772Z,68.00
2017-09-16T17:54:18.067Z,67.90
2017-09-16T17:56:45.573Z,68.00
2017-09-16T17:59:13.069Z,67.90
2017-09-16T18:01:41.363Z,67.60
2017-09-16T18:04:08.869Z,67.50
2017-09-16T18:06:36.377Z,67.50
2017-09-16T18:09:03.922Z,67.60
2017-09-16T18:11:31.471Z,67.60
2017-09-16T18:13:59.782Z,67.60
2017-09-16T18:16:27.273Z,67.60
2017-09-16T18:18:55.637Z,67.60
2017-09-16T18:21:23.168Z,67.50
2017-09-16T18:23:50.660Z,67.50
2017-09-16T18:26:18.230Z,67.40
2017-09-16T18:28:46.504Z,67.30
2017-09-16T18:31:14.073Z,67.30
2017-09-16T18:33:42.335Z,68.40
2017-09-16T18:36:09.860Z,68.30
2017-09-16T18:38:37.353Z,68.40
2017-09-16T18:41:05.615Z,68.50
2017-09-16T18:43:33.158Z,68.50
2017-09-16T18:46:00.691Z,68.60
2017-09-16T18:48:28.184Z,68.70
2017-09-16T18:50:55.733Z,68.70
2017-09-16T18:53:23.374Z,68.70
2017-09-16T18:55:50.897Z,68.80
2017-09-16T18:58:18.481Z,68.80
2017-09-16T19:00:45.978Z,68.90
2017-09-16T19:03:13.468Z,69.00
2017-09-16T19:05:41.047Z,69.10
2017-09-16T19:08:08.577Z,69.30
2017-09-16T19:10:36.923Z,69.60
2017-09-16T19:13:04.422Z,69.50
2017-09-16T19:15:31.945Z,69.70
2017-09-16T19:17:59.460Z,69.70
2017-09-16T19:20:26.961Z,69.70
2017-09-16T19:22:54.525Z,69.80
2017-09-16T19:25:22.013Z,69.80
2017-09-16T19:27:49.566Z,69.80
2017-09-16T19:30:17.069Z,69.80
2017-09-16T19:32:44.563Z,69.80
2017-09-16T19:35:12.868Z,69.80
2017-09-16T19:37:40.365Z,69.80
2017-09-16T19:40:07.892Z,69.90
2017-09-16T19:42:35.388Z,69.80
2017-09-16T19:45:02.944Z,69.80
2017-09-16T19:47:30.438Z,69.80
2017-09-16T19:49:57.945Z,69.80
2017-09-16T19:52:25.457Z,69.80
2017-09-16T19:54:52.990Z,69.80
2017-09-16T19:57:21.286Z,70.00
2017-09-16T19:59:48.788Z,70.00
2017-09-16T20:02:17.052Z,70.20
2017-09-16T20:04:44.801Z,70.20
2017-09-16T20:07:12.319Z,70.30
2017-09-16T20:09:39.843Z,70.30
2017-09-16T20:12:08.105Z,70.10
2017-09-16T20:14:36.381Z,70.00
2017-09-16T20:17:04.686Z,69.90
2017-09-16T20:19:32.295Z,69.90
2017-09-16T20:21:59.796Z,69.90
2017-09-16T20:24:29.044Z,69.80
2017-09-16T20:26:57.916Z,69.80
2017-09-16T20:29:25.470Z,69.80
2017-09-16T20:31:56.612Z,69.80
2017-09-16T20:34:27.112Z,69.90
2017-09-16T20:36:55.040Z,69.90
2017-09-16T20:39:23.890Z,69.90
2017-09-16T20:41:51.738Z,70.20
2017-09-16T20:44:19.312Z,69.80
2017-09-16T20:46:47.025Z,69.70
2017-09-16T20:49:15.351Z,69.60
2017-09-16T20:51:47.212Z,69.60
2017-09-16T20:54:14.784Z,69.60
2017-09-16T20:56:43.135Z,69.40
2017-09-16T20:59:10.633Z,69.40
2017-09-16T21:01:39.233Z,69.40
2017-09-16T21:04:11.964Z,69.30
2017-09-16T21:06:39.501Z,69.30
2017-09-16T21:09:07.037Z,69.30
2017-09-16T21:11:36.258Z,69.40
2017-09-16T21:14:04.583Z,69.60
2017-09-16T21:16:32.106Z,69.60
2017-09-16T21:18:59.635Z,69.70
2017-09-16T21:21:27.122Z,69.80
2017-09-16T21:23:54.611Z,69.80
2017-09-16T21:26:22.140Z,70.50
2017-09-16T21:28:49.624Z,70.00
2017-09-16T21:31:19.900Z,70.20
2017-09-16T21:33:47.441Z,70.40
2017-09-16T21:36:14.968Z,70.40
2017-09-16T21:38:42.462Z,70.40
2017-09-16T21:41:09.953Z,70.40
2017-09-16T21:43:37.483Z,70.40
2017-09-16T21:46:04.976Z,70.50
2017-09-16T21:48:32.468Z,70.40
2017-09-16T21:51:00.009Z,70.40
2017-09-16T21:53:27.532Z,70.40
2017-09-16T21:55:55.062Z,70.30
2017-09-16T21:58:22.564Z,70.30
2017-09-16T22:00:50.121Z,70.40
2017-09-16T22:03:17.644Z,70.50
2017-09-16T22:05:45.132Z,70.30
2017-09-16T22:08:12.669Z,70.40
2017-09-16T22:10:40.181Z,70.20
2017-09-16T22:13:07.693Z,70.00
2017-09-16T22:15:39.644Z,70.00
2017-09-16T22:18:11.084Z,70.00
2017-09-16T22:20:41.160Z,69.80
2017-09-16T22:23:08.752Z,69.70
2017-09-16T22:25:36.243Z,69.70
2017-09-16T22:28:03.772Z,69.70
2017-09-16T22:30:31.285Z,69.50
2017-09-16T22:32:59.541Z,69.30
2017-09-16T22:35:27.070Z,69.30
2017-09-16T22:37:55.535Z,69.30
2017-09-16T22:40:23.028Z,69.40
2017-09-16T22:42:50.559Z,69.40
2017-09-16T22:45:18.077Z,69.70
2017-09-16T22:47:45.569Z,69.70
2017-09-16T22:50:13.107Z,69.70
2017-09-16T22:52:40.600Z,69.80
2017-09-16T22:55:08.097Z,69.90
2017-09-16T22:57:36.384Z,69.80
2017-09-16T23:00:03.877Z,69.80
2017-09-16T23:02:31.404Z,69.80
2017-09-16T23:04:58.891Z,69.90
2017-09-16T23:07:26.389Z,69.90
2017-09-16T23:09:54.677Z,70.00
2017-09-16T23:12:22.937Z,70.00
2017-09-16T23:14:50.468Z,70.00
2017-09-16T23:17:17.973Z,70.00
2017-09-16T23:19:45.465Z,70.00
2017-09-16T23:22:12.988Z,69.80
2017-09-16T23:24:40.483Z,69.70
2017-09-16T23:27:08.010Z,69.70
2017-09-16T23:29:35.537Z,69.60
2017-09-16T23:32:03.036Z,69.40
2017-09-16T23:34:30.565Z,69.20
2017-09-16T23:36:58.853Z,69.10
2017-09-16T23:39:26.347Z,69.10
2017-09-16T23:41:53.886Z,69.10
2017-09-16T23:44:21.378Z,68.90
2017-09-16T23:46:48.871Z,69.00
2017-09-16T23:49:17.167Z,68.80
2017-09-16T23:51:44.661Z,68.80
2017-09-16T23:54:12.160Z,69.00
2017-09-16T23:56:39.700Z,69.00
2017-09-16T23:59:07.966Z,69.00
